Time;durP1;ratioP1;P1;durP2;ratioP2;P2;SDS_P1;SDS_P2;PMS_P1;PMS_P2;Temp;Humidity;BMP_temperature;BMP_pressure;BME280_temperature;BME280_humidity;BME280_pressure;Samples;Min_cycle;Max_cycle;Signal;HPM_P1;HPM_P2
2022/09/02 00:00:59;;;;;;;6.95;3.60;;;;;;;11.71;60.76;98958.34;5029843;28;20033;-74
2022/09/02 00:03:25;;;;;;;6.07;3.85;;;;;;;11.72;61.21;98954.47;5012912;28;20022;-74
2022/09/02 00:05:50;;;;;;;6.25;3.72;;;;;;;11.71;60.83;98955.59;5030573;28;20046;-75
2022/09/02 00:08:16;;;;;;;6.70;3.72;;;;;;;11.69;60.93;98957.81;5029898;28;20025;-74
2022/09/02 00:10:43;;;;;;;8.55;3.90;;;;;;;11.67;60.94;98958.09;5030663;28;20127;-74
2022/09/02 00:13:11;;;;;;;8.90;4.18;;;;;;;11.67;61.21;98960.84;5034235;28;20025;-74
2022/09/02 00:15:38;;;;;;;10.23;4.68;;;;;;;11.64;61.07;98963.34;5038275;28;20386;-74
2022/09/02 00:18:05;;;;;;;10.07;4.70;;;;;;;11.61;61.32;98953.78;5029781;28;20029;-74
2022/09/02 00:20:31;;;;;;;9.85;5.00;;;;;;;11.58;61.38;98959.84;5034496;28;20383;-74
2022/09/02 00:22:57;;;;;;;10.73;4.55;;;;;;;11.55;61.21;98961.25;5029955;28;20036;-74
2022/09/02 00:25:22;;;;;;;11.30;4.35;;;;;;;11.54;61.40;98956.88;5030557;28;20033;-74
2022/09/02 00:27:48;;;;;;;8.63;4.30;;;;;;;11.51;60.88;98954.72;5030250;28;20036;-74
2022/09/02 00:30:14;;;;;;;8.48;4.40;;;;;;;11.48;60.88;98949.78;5049706;28;20029;-74
2022/09/02 00:32:40;;;;;;;7.25;4.03;;;;;;;11.43;61.35;98950.63;5029822;28;20031;-74
2022/09/02 00:35:07;;;;;;;6.03;3.58;;;;;;;11.40;60.78;98940.25;5030553;28;20379;-73
2022/09/02 00:37:34;;;;;;;6.07;3.67;;;;;;;11.38;61.29;98939.72;5035868;28;20033;-74
2022/09/02 00:40:00;;;;;;;6.35;3.63;;;;;;;11.36;61.69;98946.59;5049828;28;20064;-74
2022/09/02 00:42:26;;;;;;;8.10;4.25;;;;;;;11.33;61.45;98942.53;5032240;28;20021;-74
2022/09/02 00:44:52;;;;;;;8.00;4.60;;;;;;;11.29;61.83;98936.78;5029915;28;20030;-74
2022/09/02 00:47:18;;;;;;;6.22;4.15;;;;;;;11.28;61.70;98942.56;5030530;28;20426;-75
2022/09/02 00:49:47;;;;;;;8.23;3.83;;;;;;;11.24;60.93;98941.50;5029521;28;20030;-73
2022/09/02 00:52:18;;;;;;;6.35;3.97;;;;;;;11.22;61.27;98940.97;5036579;28;20029;-74
2022/09/02 00:55:01;;;;;;;7.38;3.80;;;;;;;11.21;61.68;98937.41;5049934;28;20037;-75
2022/09/02 00:57:32;;;;;;;5.68;3.55;;;;;;;11.20;61.55;98934.94;5035459;28;20118;-74
2022/09/02 01:00:17;;;;;;;6.00;3.72;;;;;;;11.17;61.68;98939.91;5049876;28;20026;-74
2022/09/02 01:02:51;;;;;;;6.07;3.75;;;;;;;11.15;61.83;98931.16;5046792;28;20113;-74
2022/09/02 01:05:18;;;;;;;4.43;3.72;;;;;;;11.15;61.88;98931.16;5033338;28;20025;-73
2022/09/02 01:07:44;;;;;;;6.03;3.75;;;;;;;11.15;62.43;98931.16;5014103;28;20085;-74
2022/09/02 01:10:14;;;;;;;5.10;3.38;;;;;;;11.13;61.68;98929.81;5033070;28;20132;-74
2022/09/02 01:12:40;;;;;;;;;;;;;;;11.11;61.91;98923.78;5033613;28;20509;-73
2022/09/02 01:15:09;;;;;;;6.07;3.55;;;;;;;11.09;61.78;98929.53;5033529;28;19956;-74
2022/09/02 01:17:34;;;;;;;6.07;3.70;;;;;;;11.07;61.73;98928.22;5032856;28;20040;-74
2022/09/02 01:20:10;;;;;;;3.88;3.28;;;;;;;11.03;62.14;98933.44;5033447;28;20690;-74
2022/09/02 01:22:37;;;;;;;7.18;4.32;;;;;;;11.02;62.25;98929.88;5040998;28;20025;-74
2022/09/02 01:25:09;;;;;;;6.15;4.05;;;;;;;11.00;62.27;98928.56;5033406;28;20025;-73
2022/09/02 01:27:35;;;;;;;5.93;3.80;;;;;;;11.02;62.35;98931.78;5032858;28;20029;-74
2022/09/02 01:30:01;;;;;;;6.43;3.60;;;;;;;11.00;62.13;98937.59;5037290;28;20059;-74
2022/09/02 01:32:28;;;;;;;6.07;4.00;;;;;;;10.98;62.49;98931.56;5032728;28;20057;-73
2022/09/02 01:34:54;;;;;;;6.72;3.78;;;;;;;10.96;62.16;98925.53;5033008;28;20516;-75
2022/09/02 01:37:21;;;;;;;6.82;3.83;;;;;;;10.96;61.99;98932.97;5034416;28;20112;-74
2022/09/02 01:39:47;;;;;;;4.97;3.97;;;;;;;10.95;62.70;98934.09;5025174;28;20119;-74
2022/09/02 01:42:14;;;;;;;5.97;4.20;;;;;;;10.96;62.18;98935.72;5036718;28;20024;-75
2022/09/02 01:44:42;;;;;;;6.10;3.50;;;;;;;10.93;62.10;98939.03;5032863;28;20082;-74
2022/09/02 01:47:18;;;;;;;6.35;3.47;;;;;;;10.92;62.23;98935.47;5032786;28;20025;-74
2022/09/02 01:49:45;;;;;;;7.95;3.67;;;;;;;10.92;62.00;98935.47;5029576;28;20026;-74
2022/09/02 01:52:11;;;;;;;5.65;4.28;;;;;;;10.91;61.77;98933.00;5035292;28;20017;-75
2022/09/02 01:54:37;;;;;;;7.00;3.97;;;;;;;10.90;62.45;98932.19;5044481;28;20036;-75
2022/09/02 01:57:03;;;;;;;6.18;3.97;;;;;;;10.89;61.86;98932.47;5042639;28;20025;-74
2022/09/02 01:59:28;;;;;;;7.43;4.38;;;;;;;10.87;61.92;98927.25;5052028;28;20033;-75
2022/09/02 02:01:54;;;;;;;5.50;3.83;;;;;;;10.84;62.68;98925.09;5052196;28;20025;-75
2022/09/02 02:04:21;;;;;;;7.78;4.00;;;;;;;10.81;61.98;98922.91;5035644;28;20021;-74
2022/09/02 02:06:47;;;;;;;5.63;3.83;;;;;;;10.77;61.92;98930.09;5032910;28;20483;-75
2022/09/02 02:09:13;;;;;;;6.50;4.30;;;;;;;10.76;62.47;98917.50;5032200;28;20069;-75
2022/09/02 02:11:40;;;;;;;5.32;3.95;;;;;;;10.72;62.12;98922.72;5042824;28;20028;-74
2022/09/02 02:14:05;;;;;;;5.65;3.83;;;;;;;10.70;62.98;98920.28;5051097;28;20025;-74
2022/09/02 02:16:31;;;;;;;7.07;3.70;;;;;;;10.67;62.70;98914.53;5048189;28;20040;-74
2022/09/02 02:18:58;;;;;;;5.93;3.63;;;;;;;10.65;62.22;98914.81;5033573;28;20044;-75
2022/09/02 02:21:23;;;;;;;5.75;3.80;;;;;;;10.62;62.37;98912.66;5052529;28;20052;-74
2022/09/02 02:23:49;;;;;;;6.57;3.47;;;;;;;10.60;62.64;98914.84;5040941;28;20151;-74
2022/09/02 02:26:15;;;;;;;4.68;3.65;;;;;;;10.59;62.38;98917.91;5032571;28;20033;-74
2022/09/02 02:28:40;;;;;;;5.43;4.22;;;;;;;10.57;62.89;98918.16;5041367;28;20032;-74
2022/09/02 02:31:06;;;;;;;6.50;3.97;;;;;;;10.55;62.51;98917.63;5052394;28;20032;-74
2022/09/02 02:33:32;;;;;;;7.15;4.18;;;;;;;10.51;63.17;98911.06;5034158;28;20037;-74
2022/09/02 02:35:58;;;;;;;5.70;3.85;;;;;;;10.51;62.99;98922.03;5044515;28;20022;-74
2022/09/02 02:38:23;;;;;;;8.65;3.88;;;;;;;10.47;62.48;98921.81;5046702;28;20090;-74
2022/09/02 02:40:53;;;;;;;6.45;3.80;;;;;;;10.47;62.51;98918.22;5047643;28;20044;-74
2022/09/02 02:43:19;;;;;;;;;;;;;;;10.47;62.61;98921.81;5050246;28;20040;-74
2022/09/02 02:45:45;;;;;;;6.82;4.32;;;;;;;10.47;62.86;98913.56;5034642;28;19963;-74
2022/09/02 02:48:12;;;;;;;8.10;5.30;;;;;;;10.46;62.58;98911.09;5051671;28;20072;-74
2022/09/02 02:50:38;;;;;;;6.60;4.80;;;;;;;10.46;62.64;98913.84;5051745;28;20032;-74
2022/09/02 02:53:04;;;;;;;6.80;5.03;;;;;;;10.45;62.40;98910.28;5051271;28;20021;-74
2022/09/02 02:55:29;;;;;;;7.20;4.65;;;;;;;10.45;62.40;98910.28;5051592;28;20063;-74
2022/09/02 02:57:55;;;;;;;7.18;4.57;;;;;;;10.45;63.40;98912.19;5051483;28;20032;-74
2022/09/02 03:00:24;;;;;;;7.40;4.28;;;;;;;10.41;63.08;98912.75;5042661;28;20056;-74
2022/09/02 03:02:54;;;;;;;7.10;4.30;;;;;;;10.40;62.85;98902.91;5046631;28;20378;-74
2022/09/02 03:05:20;;;;;;;7.20;4.43;;;;;;;10.40;62.76;98900.16;5031579;28;20029;-74
2022/09/02 03:07:45;;;;;;;7.57;4.53;;;;;;;10.39;63.32;98895.78;5031538;28;20036;-73
2022/09/02 03:10:12;;;;;;;10.77;4.65;;;;;;;10.37;62.90;98897.97;5031330;28;20049;-74
2022/09/02 03:12:38;;;;;;;12.25;4.75;;;;;;;10.37;62.51;98892.50;5031074;28;20033;-74
2022/09/02 03:15:05;;;;;;;7.20;4.75;;;;;;;10.38;63.22;98896.03;5031419;28;20068;-73
2022/09/02 03:17:31;;;;;;;7.07;4.45;;;;;;;10.37;63.30;98903.47;5013806;28;20379;-74
2022/09/02 03:19:57;;;;;;;7.05;5.00;;;;;;;10.36;63.10;98911.97;5031034;28;20091;-74
2022/09/02 03:22:23;;;;;;;6.93;4.40;;;;;;;10.34;63.25;98903.19;5013390;28;20489;-74
2022/09/02 03:24:48;;;;;;;6.97;4.80;;;;;;;10.31;63.41;98903.75;5031124;28;20025;-74
2022/09/02 03:27:14;;;;;;;8.63;4.43;;;;;;;10.27;62.99;98903.53;5031535;28;20025;-74
2022/09/02 03:29:39;;;;;;;9.43;4.63;;;;;;;10.24;63.09;98904.09;5030952;28;20025;-74
2022/09/02 03:32:05;;;;;;;10.02;4.90;;;;;;;10.25;62.76;98900.25;5034500;28;20033;-74
2022/09/02 03:34:31;;;;;;;8.02;4.72;;;;;;;10.26;63.30;98908.16;5031174;28;20026;-74
2022/09/02 03:36:57;;;;;;;8.65;5.18;;;;;;;10.25;63.07;98903.78;5036842;28;20032;-74
2022/09/02 03:39:22;;;;;;;10.38;4.80;;;;;;;10.22;63.64;98901.59;5045751;28;20037;-74
2022/09/02 03:41:49;;;;;;;6.55;4.20;;;;;;;10.22;63.88;98907.09;5034882;28;20476;-74
2022/09/02 03:44:15;;;;;;;5.75;4.18;;;;;;;10.21;63.68;98910.13;5030753;28;20036;-74
2022/09/02 03:46:40;;;;;;;8.00;4.65;;;;;;;10.19;63.19;98915.06;5030941;28;20029;-74
2022/09/02 03:49:06;;;;;;;7.63;4.22;;;;;;;10.16;63.78;98916.47;5030783;28;20037;-74
2022/09/02 03:51:32;;;;;;;7.93;4.80;;;;;;;10.16;63.76;98918.38;5048161;28;20029;-74
2022/09/02 03:53:58;;;;;;;8.05;4.85;;;;;;;10.15;64.06;98917.56;5049807;28;20076;-74
2022/09/02 03:56:24;;;;;;;8.25;4.75;;;;;;;10.17;63.38;98912.63;5050559;28;20052;-74
2022/09/02 03:58:51;;;;;;;5.90;4.43;;;;;;;10.18;63.71;98916.19;5050315;28;20040;-74
2022/09/02 04:01:22;;;;;;;4.95;4.10;;;;;;;10.18;63.30;98916.19;5050322;28;20098;-73
2022/09/02 04:03:48;;;;;;;7.18;4.35;;;;;;;10.20;63.49;98923.00;5037378;28;20387;-74
2022/09/02 04:06:15;;;;;;;5.60;3.95;;;;;;;10.20;64.06;98919.47;5041050;28;20776;-74
2022/09/02 04:08:44;;;;;;;7.78;4.18;;;;;;;10.22;63.67;98917.25;5050118;28;20045;-74
2022/09/02 04:11:15;;;;;;;7.40;4.18;;;;;;;10.21;64.26;98918.34;5050124;28;20506;-74
2022/09/02 04:13:41;;;;;;;6.00;4.32;;;;;;;10.21;64.03;98915.63;5050041;28;20497;-74
2022/09/02 04:16:19;;;;;;;8.18;4.50;;;;;;;10.18;63.60;98917.00;5050010;28;20107;-74
2022/09/02 04:18:45;;;;;;;6.13;3.75;;;;;;;10.20;64.14;98914.78;5032253;28;20036;-73
2022/09/02 04:21:12;;;;;;;6.68;4.30;;;;;;;10.20;63.86;98920.25;5032188;28;20387;-74
2022/09/02 04:23:38;;;;;;;6.85;4.03;;;;;;;10.21;63.62;98915.63;5049979;28;20024;-74
2022/09/02 04:26:06;;;;;;;8.13;3.88;;;;;;;10.23;64.33;98916.16;5050291;28;20104;-74
2022/09/02 04:28:32;;;;;;;5.45;3.70;;;;;;;10.23;63.86;98916.97;5050038;28;20025;-74
2022/09/02 04:30:57;;;;;;;7.45;3.65;;;;;;;10.26;64.49;98918.31;5049848;28;20028;-73
2022/09/02 04:33:23;;;;;;;9.95;3.83;;;;;;;10.28;64.03;98916.13;5029838;28;20026;-74
2022/09/02 04:35:48;;;;;;;7.93;4.20;;;;;;;10.32;63.96;98905.41;5012315;28;20025;-74
2022/09/02 04:38:15;;;;;;;8.35;3.60;;;;;;;10.35;63.82;98911.16;5017863;28;20596;-73
2022/09/02 04:40:43;;;;;;;7.82;3.67;;;;;;;10.37;63.85;98919.09;5054121;28;20116;-73
2022/09/02 04:43:09;;;;;;;6.03;3.55;;;;;;;10.41;64.15;98915.50;5053964;28;20017;-74
2022/09/02 04:45:38;;;;;;;8.85;3.70;;;;;;;10.46;64.23;98911.94;5036144;28;20086;-73
2022/09/02 04:48:03;;;;;;;6.80;3.67;;;;;;;10.50;64.47;98910.25;5053121;28;20029;-74
2022/09/02 04:50:29;;;;;;;7.05;3.90;;;;;;;10.52;64.42;98907.22;5053634;28;20395;-74
2022/09/02 04:52:54;;;;;;;8.63;4.00;;;;;;;10.57;64.83;98915.41;5053520;28;20044;-74
2022/09/02 04:55:20;;;;;;;5.93;3.60;;;;;;;10.61;64.39;98908.25;5035730;28;20096;-73
2022/09/02 04:57:46;;;;;;;5.85;4.20;;;;;;;10.68;64.86;98913.41;5036212;28;20129;-73
2022/09/02 05:00:12;;;;;;;5.55;3.65;;;;;;;10.74;65.04;98916.97;5032948;28;20025;-72
2022/09/02 05:02:37;;;;;;;4.35;3.10;;;;;;;10.79;64.78;98911.44;5037069;28;20021;-73
2022/09/02 05:05:04;;;;;;;6.03;3.55;;;;;;;10.84;65.25;98911.38;5032965;28;20025;-73
2022/09/02 05:07:29;;;;;;;5.70;3.38;;;;;;;10.89;65.04;98914.06;5032918;28;20034;-73
2022/09/02 05:09:58;;;;;;;5.03;2.95;;;;;;;10.95;65.57;98909.38;5032678;28;20046;-72
2022/09/02 05:12:26;;;;;;;4.60;3.63;;;;;;;11.01;65.29;98910.94;5036158;28;20021;-73
2022/09/02 05:14:52;;;;;;;6.25;3.38;;;;;;;11.07;65.61;98920.78;5052633;28;20032;-73
2022/09/02 05:17:19;;;;;;;6.43;3.35;;;;;;;11.12;65.02;98918.00;5034613;28;20078;-72
2022/09/02 05:19:44;;;;;;;6.28;3.25;;;;;;;11.16;65.49;98913.56;5038099;28;20545;-72
2022/09/02 05:22:09;;;;;;;6.30;3.28;;;;;;;11.21;65.52;98912.69;5031442;28;20025;-72
2022/09/02 05:24:35;;;;;;;4.40;3.13;;;;;;;11.26;65.10;98909.09;5014979;28;20029;-72
2022/09/02 05:27:00;;;;;;;7.20;3.22;;;;;;;11.32;65.71;98907.94;5032854;28;20083;-73
2022/09/02 05:29:26;;;;;;;5.35;3.63;;;;;;;11.37;64.91;98913.38;5033029;28;20068;-72
2022/09/02 05:31:51;;;;;;;6.28;3.20;;;;;;;11.42;65.22;98907.81;5014093;28;20021;-73
2022/09/02 05:34:17;;;;;;;4.95;3.20;;;;;;;11.50;65.26;98908.28;5031837;28;20474;-73
2022/09/02 05:36:43;;;;;;;4.78;3.28;;;;;;;11.53;65.24;98905.78;5032750;28;20025;-72
2022/09/02 05:39:08;;;;;;;7.18;3.50;;;;;;;11.59;65.28;98907.38;5014482;28;20030;-72
2022/09/02 05:41:34;;;;;;;5.53;2.95;;;;;;;11.66;65.73;98907.00;5033277;28;20065;-72
2022/09/02 05:44:01;;;;;;;4.60;3.38;;;;;;;11.72;66.00;98914.09;5033032;28;20040;-73
2022/09/02 05:46:28;;;;;;;5.78;3.25;;;;;;;11.77;65.31;98910.47;5032518;28;20151;-72
2022/09/02 05:49:07;;;;;;;6.97;3.53;;;;;;;11.84;65.56;98904.59;5032633;28;20033;-73
2022/09/02 05:51:44;;;;;;;4.80;3.22;;;;;;;11.91;65.32;98905.06;5033192;28;20420;-73
2022/09/02 05:54:14;;;;;;;5.72;3.03;;;;;;;11.95;65.45;98916.31;5033044;28;20452;-72
2022/09/02 05:56:42;;;;;;;5.30;3.20;;;;;;;11.98;65.79;98910.22;5033199;28;20395;-73
2022/09/02 05:59:09;;;;;;;5.88;3.28;;;;;;;12.02;65.66;98903.84;5018870;28;20026;-73
2022/09/02 06:01:35;;;;;;;6.20;3.03;;;;;;;12.08;65.63;98912.84;5032928;28;20034;-73
2022/09/02 06:04:02;;;;;;;5.68;3.70;;;;;;;12.14;65.84;98906.16;5031455;28;20357;-73
2022/09/02 06:06:28;;;;;;;7.60;3.97;;;;;;;12.19;65.60;98906.09;5015093;28;20022;-73
2022/09/02 06:08:54;;;;;;;4.55;3.47;;;;;;;12.27;65.49;98903.81;5032091;28;20041;-74
2022/09/02 06:11:20;;;;;;;5.70;3.80;;;;;;;12.33;65.83;98910.88;5032662;28;20498;-73
2022/09/02 06:13:47;;;;;;;7.32;3.70;;;;;;;12.40;65.43;98905.84;5032081;28;20114;-73
2022/09/02 06:16:18;;;;;;;5.35;3.45;;;;;;;12.47;65.82;98911.75;5032243;28;20029;-73
2022/09/02 06:18:45;;;;;;;6.15;3.08;;;;;;;12.56;65.92;98922.94;5032029;28;20033;-73
2022/09/02 06:21:11;;;;;;;5.15;3.20;;;;;;;12.62;65.83;98915.41;5035596;28;20021;-74
2022/09/02 06:23:38;;;;;;;5.68;3.50;;;;;;;12.70;66.06;98919.41;5043923;28;20380;-74
2022/09/02 06:26:05;;;;;;;6.55;3.35;;;;;;;12.78;65.79;98918.72;5036748;28;20365;-72
2022/09/02 06:28:32;;;;;;;5.80;3.58;;;;;;;12.87;65.68;98914.19;5036269;28;20055;-73
2022/09/02 06:30:58;;;;;;;6.68;3.88;;;;;;;12.94;65.57;98922.88;5030816;28;20808;-73
2022/09/02 06:33:23;;;;;;;5.25;3.05;;;;;;;13.00;65.18;98922.81;5030742;28;20048;-72
2022/09/02 06:35:49;;;;;;;6.65;3.55;;;;;;;13.06;65.62;98919.66;5031791;28;20100;-74
2022/09/02 06:38:15;;;;;;;7.53;3.92;;;;;;;13.13;65.49;98918.44;5013683;28;20040;-72
2022/09/02 06:40:52;;;;;;;5.20;3.55;;;;;;;13.19;65.33;98920.81;5031917;28;20065;-73
2022/09/02 06:43:17;;;;;;;5.22;3.60;;;;;;;13.28;65.14;98917.34;5031881;28;20036;-72
2022/09/02 06:45:43;;;;;;;8.02;4.22;;;;;;;13.35;65.24;98921.34;5051267;28;20374;-73
2022/09/02 06:48:10;;;;;;;7.20;4.57;;;;;;;13.42;65.53;98918.25;5035405;28;20430;-72
2022/09/02 06:50:42;;;;;;;6.22;4.35;;;;;;;13.50;65.25;98919.47;5031433;28;20029;-73
2022/09/02 06:53:09;;;;;;;6.97;4.22;;;;;;;13.59;65.38;98928.66;5030860;28;20022;-73
2022/09/02 06:55:39;;;;;;;8.70;4.70;;;;;;;13.66;65.38;98918.03;5031525;28;20040;-73
2022/09/02 06:58:05;;;;;;;8.40;4.85;;;;;;;13.74;65.56;98916.53;5031294;28;20041;-72
2022/09/02 07:00:31;;;;;;;7.50;5.07;;;;;;;13.81;65.22;98924.38;5041272;28;20029;-75
2022/09/02 07:05:42;;;;;;;8.00;4.90;;;;;;;13.97;65.49;98922.13;5040982;28;20044;-73
2022/09/02 07:08:10;;;;;;;9.32;5.15;;;;;;;14.04;65.11;98922.53;5050850;28;20033;-72
2022/09/02 07:10:38;;;;;;;8.32;4.68;;;;;;;14.11;65.29;98922.09;5044512;28;20029;-73
2022/09/02 07:13:04;;;;;;;7.88;4.25;;;;;;;14.19;65.22;98924.13;5029974;28;20029;-72
2022/09/02 07:15:30;;;;;;;6.57;4.53;;;;;;;14.26;65.13;98926.50;5030868;28;20415;-74
2022/09/02 07:17:55;;;;;;;7.13;4.00;;;;;;;14.34;65.10;98924.94;5037386;28;20037;-72
2022/09/02 07:20:21;;;;;;;6.30;3.20;;;;;;;14.38;65.08;98921.25;5012497;28;20034;-73
2022/09/02 07:22:48;;;;;;;5.38;2.53;;;;;;;14.43;64.67;98921.13;5023641;28;20108;-72
2022/09/02 07:25:15;;;;;;;6.53;2.75;;;;;;;14.50;64.82;98917.13;5034388;28;20096;-73
2022/09/02 07:27:40;;;;;;;5.47;2.58;;;;;;;14.56;64.89;98919.44;5034945;28;20120;-73
2022/09/02 07:30:07;;;;;;;4.53;2.00;;;;;;;14.63;64.79;98920.97;5029245;28;20109;-73
2022/09/02 07:32:32;;;;;;;5.72;2.30;;;;;;;14.70;64.81;98918.63;5019000;28;20035;-74
2022/09/02 07:34:58;;;;;;;5.32;2.50;;;;;;;14.79;64.40;98924.22;5026385;28;20124;-75
2022/09/02 07:37:24;;;;;;;3.67;2.20;;;;;;;14.87;64.71;98920.72;5013492;28;20505;-74
2022/09/02 07:39:50;;;;;;;3.47;2.30;;;;;;;14.93;64.37;98924.16;5026693;28;20112;-73
2022/09/02 07:42:15;;;;;;;3.90;2.22;;;;;;;15.02;64.54;98914.81;5027830;28;20387;-73
2022/09/02 07:44:41;;;;;;;5.03;2.50;;;;;;;15.12;64.40;98919.25;5008976;28;20032;-75
2022/09/02 07:47:07;;;;;;;4.13;2.30;;;;;;;15.22;64.22;98917.38;5028798;28;20098;-73
2022/09/02 07:49:33;;;;;;;5.60;2.03;;;;;;;15.30;63.88;98928.47;5040424;28;20087;-74
2022/09/02 07:51:58;;;;;;;8.38;2.40;;;;;;;15.40;64.36;98930.13;5029888;28;20523;-73
2022/09/02 07:54:25;;;;;;;6.18;2.40;;;;;;;15.48;63.71;98925.81;5025702;28;20092;-78
2022/09/02 07:56:52;;;;;;;3.78;1.85;;;;;;;15.56;63.58;98927.78;5024216;28;20075;-73
2022/09/02 07:59:20;;;;;;;3.38;2.00;;;;;;;15.64;63.55;98926.19;5025796;28;20443;-73
2022/09/02 08:01:47;;;;;;;4.38;1.90;;;;;;;15.73;63.66;98918.75;5020676;28;20040;-73
2022/09/02 08:04:12;;;;;;;5.43;1.58;;;;;;;15.82;63.21;98921.56;5022465;28;20021;-73
2022/09/02 08:06:38;;;;;;;4.35;1.55;;;;;;;15.90;62.83;98914.44;5026904;28;20476;-73
2022/09/02 08:09:10;;;;;;;3.33;1.55;;;;;;;15.98;63.14;98913.66;5027931;28;20060;-73
2022/09/02 08:11:41;;;;;;;1.83;1.20;;;;;;;16.05;62.58;98915.94;5028719;28;20188;-74
2022/09/02 08:14:08;;;;;;;2.65;1.27;;;;;;;16.11;62.30;98922.13;5027460;28;20029;-73
2022/09/02 08:16:34;;;;;;;2.90;1.27;;;;;;;16.19;61.75;98918.56;5028215;28;20124;-72
2022/09/02 08:19:00;;;;;;;2.97;1.20;;;;;;;16.27;62.06;98905.91;5025397;28;20127;-74
2022/09/02 08:21:25;;;;;;;3.25;1.30;;;;;;;16.37;61.71;98908.34;5027806;28;20041;-75
2022/09/02 08:23:50;;;;;;;3.55;1.00;;;;;;;16.44;61.09;98907.88;5026069;28;20029;-75
2022/09/02 08:26:17;;;;;;;2.42;1.30;;;;;;;16.52;61.11;98913.41;5026641;28;20503;-75
2022/09/02 08:28:43;;;;;;;2.63;1.05;;;;;;;16.58;60.95;98900.22;5033294;28;20544;-73
2022/09/02 08:31:09;;;;;;;4.10;1.63;;;;;;;16.67;60.39;98909.34;5033061;28;20032;-74
2022/09/02 08:33:35;;;;;;;1.90;1.10;;;;;;;16.74;60.47;98911.63;5027862;28;20025;-74
2022/09/02 08:36:07;;;;;;;1.92;1.20;;;;;;;16.82;60.26;98923.84;5028284;28;20068;-74
2022/09/02 08:38:34;;;;;;;3.97;1.10;;;;;;;16.90;60.20;98908.34;5027735;28;20379;-74
2022/09/02 08:41:00;;;;;;;3.90;1.00;;;;;;;16.98;59.73;98912.28;5026944;28;20079;-74
2022/09/02 08:43:41;;;;;;;3.35;0.98;;;;;;;17.01;59.42;98915.22;5026445;28;20021;-74
2022/09/02 08:46:11;;;;;;;2.55;1.20;;;;;;;17.02;59.07;98911.31;5027187;28;20040;-74
2022/09/02 08:48:48;;;;;;;2.10;1.23;;;;;;;17.04;58.92;98911.81;5024577;28;20018;-75
2022/09/02 08:51:41;;;;;;;1.50;0.90;;;;;;;17.06;58.57;98911.47;5032196;28;20030;-75
2022/09/02 08:54:19;;;;;;;2.00;0.90;;;;;;;17.10;58.13;98909.66;5009294;28;20030;-76
2022/09/02 08:56:45;;;;;;;1.42;0.90;;;;;;;17.10;57.74;98907.72;5025835;28;20036;-73
2022/09/02 08:59:13;;;;;;;2.47;0.93;;;;;;;17.09;57.87;98908.03;5028784;28;20037;-78
2022/09/02 09:02:00;;;;;;;2.33;0.80;;;;;;;17.12;58.10;98890.75;5020155;28;20048;-79
2022/09/02 09:04:56;;;;;;;2.97;0.70;;;;;;;17.21;57.66;98888.78;5020777;28;20033;-75
2022/09/02 09:08:13;;;;;;;0.95;0.50;;;;;;;17.35;57.50;98887.75;5034635;28;20434;-76
2022/09/02 09:11:03;;;;;;;4.35;0.63;;;;;;;17.54;57.67;98890.94;4948493;28;20055;-75
2022/09/02 09:13:40;;;;;;;9.55;0.90;;;;;;;17.65;56.82;98879.50;5025279;28;20710;-75
2022/09/02 09:16:21;;;;;;;1.17;0.70;;;;;;;17.77;56.12;98881.56;5029770;28;20056;-76
2022/09/02 09:19:00;;;;;;;1.88;0.65;;;;;;;17.94;56.28;98875.09;5003345;28;20029;-74
2022/09/02 09:21:28;;;;;;;1.58;0.82;;;;;;;18.12;56.05;98878.59;5025909;28;20055;-74
2022/09/02 09:23:54;;;;;;;1.30;0.80;;;;;;;18.18;55.08;98871.72;5022735;28;20033;-75
2022/09/02 09:26:27;;;;;;;1.25;0.85;;;;;;;18.20;54.75;98874.13;5023491;28;20383;-75
2022/09/02 09:28:54;;;;;;;2.92;0.93;;;;;;;18.23;54.09;98877.06;5021665;28;20033;-75
2022/09/02 09:31:23;;;;;;;1.65;0.65;;;;;;;18.29;54.06;98880.44;5026258;28;20083;-74
2022/09/02 09:34:10;;;;;;;2.95;0.68;;;;;;;18.36;53.96;98872.41;5021056;28;20086;-74
2022/09/02 09:36:38;;;;;;;2.00;1.10;;;;;;;18.47;53.17;98874.78;5027986;28;20056;-74
2022/09/02 09:39:30;;;;;;;1.52;0.60;;;;;;;18.51;53.17;98867.38;5030750;28;20690;-74
2022/09/02 09:41:59;;;;;;;2.03;0.73;;;;;;;18.52;52.49;98877.34;5033029;28;20044;-74
2022/09/02 09:44:43;;;;;;;3.40;1.10;;;;;;;18.51;52.32;98872.94;5032167;28;20100;-74
2022/09/02 09:47:24;;;;;;;2.75;1.38;;;;;;;18.51;51.90;98873.75;5032188;28;20484;-74
2022/09/02 09:49:52;;;;;;;2.28;0.90;;;;;;;18.50;51.47;98883.22;5017454;28;20643;-74
2022/09/02 09:52:23;;;;;;;2.28;1.20;;;;;;;18.47;51.26;98877.56;5030198;28;20037;-74
2022/09/02 09:55:05;;;;;;;2.97;2.30;;;;;;;18.40;51.63;98878.91;5032607;28;20025;-74
2022/09/02 09:57:31;;;;;;;3.83;2.53;;;;;;;18.37;51.14;98884.28;5033476;28;20057;-74
2022/09/02 10:00:01;;;;;;;2.88;1.00;;;;;;;18.33;50.98;98878.63;5044736;28;20045;-74
2022/09/02 10:02:27;;;;;;;3.88;3.08;;;;;;;18.30;51.46;98871.78;5032664;28;20440;-74
2022/09/02 10:05:08;;;;;;;1.60;1.08;;;;;;;18.32;51.58;98877.00;5033211;28;20029;-74
2022/09/02 10:07:35;;;;;;;1.65;0.90;;;;;;;18.31;51.31;98872.59;5032677;28;20450;-74
2022/09/02 10:10:15;;;;;;;4.53;1.00;;;;;;;18.29;51.36;98869.34;5032472;28;20409;-74
2022/09/02 10:12:42;;;;;;;2.58;0.90;;;;;;;18.26;51.28;98876.41;5032738;28;20025;-74
2022/09/02 10:15:08;;;;;;;4.63;1.15;;;;;;;18.24;51.25;98875.09;5032694;28;20044;-74
2022/09/02 10:17:40;;;;;;;2.38;0.75;;;;;;;18.20;51.24;98869.41;5032411;28;20369;-74
2022/09/02 10:20:16;;;;;;;3.63;0.90;;;;;;;18.22;51.28;98861.56;5049640;28;20542;-74
2022/09/02 10:23:07;;;;;;;0.98;0.70;;;;;;;18.25;51.42;98865.59;5052401;28;20025;-73
2022/09/02 10:25:57;;;;;;;1.80;0.98;;;;;;;18.22;51.21;98855.19;5034835;28;20021;-74
2022/09/02 10:28:32;;;;;;;;;;;;;;;18.23;51.48;98857.63;5053193;28;20033;-73
2022/09/02 10:31:22;;;;;;;1.30;1.15;;;;;;;18.28;51.30;98853.84;5052653;28;19912;-74
2022/09/02 10:33:56;;;;;;;2.40;2.00;;;;;;;18.36;51.31;98852.13;5043810;28;20030;-75
2022/09/02 10:36:36;;;;;;;1.15;0.80;;;;;;;18.43;51.19;98850.44;5032210;28;20414;-74
2022/09/02 10:39:16;;;;;;;2.75;1.65;;;;;;;18.51;50.97;98851.53;5032124;28;20088;-74
2022/09/02 10:41:47;;;;;;;1.67;1.10;;;;;;;18.55;50.21;98846.09;5031880;28;20498;-74
2022/09/02 10:44:57;;;;;;;3.22;2.33;;;;;;;18.59;50.67;98842.31;5031842;28;20122;-75
2022/09/02 10:47:33;;;;;;;11.18;6.07;;;;;;;18.67;50.69;98848.94;5034372;28;20041;-74
2022/09/02 10:50:19;;;;;;;5.25;3.13;;;;;;;18.78;50.54;98849.31;5051648;28;20027;-75
2022/09/02 10:53:13;;;;;;;4.18;2.20;;;;;;;18.85;50.19;98843.22;5051504;28;20399;-75
2022/09/02 10:55:45;;;;;;;1.45;1.00;;;;;;;18.91;49.96;98847.41;5039149;28;20033;-75
2022/09/02 10:58:21;;;;;;;0.98;0.57;;;;;;;18.95;49.47;98836.41;5031176;28;20067;-74
2022/09/02 11:00:49;;;;;;;11.13;1.58;;;;;;;18.99;49.02;98838.16;5031814;28;20689;-75
2022/09/02 11:03:20;;;;;;;1.40;0.50;;;;;;;19.09;49.06;98830.56;5043118;28;20021;-74
2022/09/02 11:05:51;;;;;;;2.22;1.00;;;;;;;19.24;49.45;98842.97;5029214;28;20276;-74
2022/09/02 11:08:17;;;;;;;1.90;0.80;;;;;;;19.39;48.85;98836.75;5030224;28;20025;-75
2022/09/02 11:11:10;;;;;;;2.65;1.20;;;;;;;19.55;48.93;98839.66;5031108;28;20099;-74
2022/09/02 11:13:59;;;;;;;1.95;0.77;;;;;;;19.76;48.56;98828.41;5030607;28;20036;-74
2022/09/02 11:16:41;;;;;;;1.23;0.70;;;;;;;19.90;48.35;98830.84;5044763;28;20033;-74
2022/09/02 11:19:31;;;;;;;1.38;0.73;;;;;;;19.98;47.53;98834.66;5035350;28;20052;-74
2022/09/02 11:22:12;;;;;;;0.90;0.60;;;;;;;19.99;46.96;98829.91;5034918;28;20086;-74
2022/09/02 11:24:37;;;;;;;1.13;0.50;;;;;;;19.95;46.13;98837.34;5030654;28;20029;-75
2022/09/02 11:27:09;;;;;;;2.47;0.70;;;;;;;19.84;46.26;98829.44;5030619;28;20032;-73
2022/09/02 11:29:46;;;;;;;1.08;0.90;;;;;;;19.75;46.45;98824.00;5030606;28;20119;-74
2022/09/02 11:32:26;;;;;;;2.15;1.10;;;;;;;19.73;46.74;98828.31;5045788;28;20045;-74
2022/09/02 11:34:57;;;;;;;2.20;1.80;;;;;;;19.68;46.59;98822.97;5032565;28;20025;-71
2022/09/02 11:37:46;;;;;;;5.88;4.13;;;;;;;19.67;46.91;98832.47;5050023;28;20029;-73
2022/09/02 11:40:29;;;;;;;2.88;1.52;;;;;;;19.74;47.14;98821.59;5050321;28;20036;-74
2022/09/02 11:43:18;;;;;;;3.70;2.20;;;;;;;19.86;47.14;98817.97;5050646;28;20447;-73
2022/09/02 11:46:03;;;;;;;2.65;1.15;;;;;;;20.00;47.25;98823.19;5043165;28;20103;-74
2022/09/02 11:48:32;;;;;;;3.22;1.45;;;;;;;20.13;46.62;98819.22;5029649;28;20033;-74